Tsogt-Ovoo, Mongolia
Current Conditions -  °F | °C
As of 4:00 AM on Thursday 29 Jan 2015 (Local Time) from ZMUB Reporting Station
Clear Clear  
Wind Chill: -24°   Ceiling: Unl
Heat Index: -24°   Visibility: 5mi
Dew Point: -31°   Wind: 2mph
Humidity: 69%   Direction: NA
Pressure: 30.24"   Gusts: NA
Location:  44.42°N, 105.32°E
Report Text: ZMUB 282000Z VRB01MPS 8000NW NSC M31/M35 Q1024 NOSIG RMK QFE660.4 66 NT
Loading
Personal Weather Stations






























Interactive Weather Map New forecast layout! Learn more

10-Day Weather Forecast

Advertisements
Track Severe Weather on mobile